Cheticamp, Canada
Current Conditions -  °F | °C
As of 1:00 AM on Tuesday 21 Oct 2014 (Local Time) from CYQY Reporting Station
Broken Clouds Broken Clouds  
Wind Chill: 36°   Ceiling: 4200
Heat Index: 43°   Visibility: 15mi
Dew Point: 32°   Wind: 14mph
Humidity: 66%   Direction: 260°W
Pressure: 29.9"   Gusts: 21mph
Location:  46.63°N, 61.01°W
Report Text: CYQY 210400Z 26012G18KT 15SM BKN042 06/M00 A2990 RMK SC6 SLP128
Loading
Personal Weather Stations






























Interactive Weather Map
Tropical Storm Tracking
New forecast layout! Learn more

10-Day Weather Forecast

Advertisements
Track Severe Weather on mobile